Time;durP1;ratioP1;P1;durP2;ratioP2;P2;SDS_P1;SDS_P2;PMS_P1;PMS_P2;Temp;Humidity;BMP_temperature;BMP_pressure;BME280_temperature;BME280_humidity;BME280_pressure;Samples;Min_cycle;Max_cycle;Signal;HPM_P1;HPM_P2
2023/10/25 00:02:21;;;;;;;1.17;1.05;;;18.70;69.90;;;;;;5028557;28;20033;-53
2023/10/25 00:04:46;;;;;;;1.65;1.55;;;18.70;69.80;;;;;;5025720;28;20052;-53
2023/10/25 00:07:12;;;;;;;1.73;1.30;;;18.70;69.90;;;;;;5043330;28;20017;-56
2023/10/25 00:09:38;;;;;;;1.67;1.58;;;18.70;69.90;;;;;;5044752;28;20423;-54
2023/10/25 00:12:03;;;;;;;1.92;1.73;;;18.70;69.90;;;;;;5038021;28;20111;-54
2023/10/25 00:14:29;;;;;;;1.45;1.35;;;18.70;69.90;;;;;;5027290;28;20036;-52
2023/10/25 00:16:54;;;;;;;1.60;1.48;;;18.70;69.90;;;;;;5046011;28;20082;-53
2023/10/25 00:19:20;;;;;;;1.45;1.35;;;18.70;69.80;;;;;;5023582;28;20048;-62
2023/10/25 00:21:45;;;;;;;1.55;1.45;;;18.70;69.80;;;;;;5050569;28;20032;-57
2023/10/25 00:24:11;;;;;;;1.83;1.70;;;18.70;69.90;;;;;;5048143;28;20029;-56
2023/10/25 00:26:37;;;;;;;1.48;1.38;;;18.70;69.90;;;;;;5045178;28;20039;-52
2023/10/25 00:29:02;;;;;;;1.42;1.33;;;18.70;69.90;;;;;;5041356;28;20037;-58
2023/10/25 00:31:28;;;;;;;1.25;1.15;;;18.70;69.90;;;;;;5048007;28;20386;-58
2023/10/25 00:33:54;;;;;;;1.40;1.30;;;18.70;69.90;;;;;;5043558;28;20479;-55
2023/10/25 00:36:20;;;;;;;1.42;1.15;;;18.70;69.90;;;;;;5052190;28;20637;-53
2023/10/25 00:38:45;;;;;;;1.40;1.30;;;18.70;70.00;;;;;;5031141;28;20027;-56
2023/10/25 00:41:11;;;;;;;1.65;1.42;;;18.70;69.90;;;;;;5042851;28;20025;-57
2023/10/25 00:43:36;;;;;;;1.98;1.38;;;18.70;69.90;;;;;;5044820;28;20040;-55
2023/10/25 00:46:12;;;;;;;1.77;1.60;;;18.60;69.90;;;;;;5043470;28;20145;-53
2023/10/25 00:48:45;;;;;;;1.83;1.40;;;18.70;69.90;;;;;;5046049;28;20032;-56
2023/10/25 00:51:12;;;;;;;2.40;1.63;;;18.70;70.00;;;;;;5041582;28;20522;-55
2023/10/25 00:53:40;;;;;;;1.48;1.38;;;18.60;69.90;;;;;;5044313;28;20037;-55
2023/10/25 00:56:08;;;;;;;1.40;1.30;;;18.70;69.90;;;;;;5044194;28;20028;-55
2023/10/25 00:58:34;;;;;;;1.83;1.55;;;18.70;69.80;;;;;;5047874;28;20107;-54
2023/10/25 01:01:00;;;;;;;1.50;1.40;;;18.70;69.80;;;;;;5037937;28;20083;-58
2023/10/25 01:03:26;;;;;;;1.70;1.35;;;18.70;70.00;;;;;;5039403;28;20421;-52
2023/10/25 01:05:52;;;;;;;1.30;1.20;;;18.70;69.80;;;;;;5042195;28;20033;-54
2023/10/25 01:08:19;;;;;;;1.40;1.30;;;18.70;69.80;;;;;;5050213;28;20140;-53
2023/10/25 01:10:50;;;;;;;1.88;1.75;;;18.70;69.90;;;;;;5049554;28;20150;-55
2023/10/25 01:13:19;;;;;;;1.40;1.30;;;18.70;69.90;;;;;;5050217;28;20036;-54
2023/10/25 01:15:46;;;;;;;1.73;1.60;;;18.70;69.90;;;;;;5039508;28;20079;-54
2023/10/25 01:18:12;;;;;;;1.83;1.20;;;18.70;69.90;;;;;;5045090;28;20079;-54
2023/10/25 01:20:38;;;;;;;1.52;1.42;;;18.70;69.90;;;;;;5054292;28;20037;-55
2023/10/25 01:23:04;;;;;;;1.52;1.42;;;18.60;69.80;;;;;;5045421;28;20112;-55
2023/10/25 01:25:29;;;;;;;1.75;1.60;;;18.70;69.80;;;;;;5046110;28;20113;-55
2023/10/25 01:27:55;;;;;;;1.83;1.40;;;18.70;69.80;;;;;;5038951;28;20065;-53
2023/10/25 01:30:21;;;;;;;1.90;1.40;;;18.70;69.90;;;;;;5045752;28;20497;-58
2023/10/25 01:32:47;;;;;;;1.60;1.30;;;18.70;69.90;;;;;;5040655;28;20053;-53
2023/10/25 01:35:12;;;;;;;1.45;1.30;;;18.70;70.10;;;;;;5027587;28;20041;-54
2023/10/25 01:37:38;;;;;;;2.35;1.17;;;18.70;69.90;;;;;;5033136;28;20052;-55
2023/10/25 01:40:05;;;;;;;1.60;1.50;;;18.70;69.90;;;;;;5039884;28;20426;-56
2023/10/25 01:42:30;;;;;;;1.40;1.30;;;18.70;69.90;;;;;;5043885;28;20036;-56
2023/10/25 01:44:56;;;;;;;1.42;1.30;;;18.70;69.90;;;;;;5045632;28;20021;-55
2023/10/25 01:47:22;;;;;;;1.38;1.27;;;18.70;69.90;;;;;;5049211;28;20040;-58
2023/10/25 01:49:47;;;;;;;1.40;1.30;;;18.70;69.90;;;;;;5035400;28;20454;-54
2023/10/25 01:52:13;;;;;;;1.52;1.30;;;18.70;69.90;;;;;;5036470;28;20057;-56
2023/10/25 01:54:40;;;;;;;1.85;1.40;;;18.70;69.90;;;;;;5042064;28;20032;-57
2023/10/25 01:57:06;;;;;;;1.35;1.13;;;18.70;69.90;;;;;;5041541;28;20052;-56
2023/10/25 01:59:32;;;;;;;1.35;1.25;;;18.70;70.00;;;;;;5047574;28;20035;-56
2023/10/25 02:01:57;;;;;;;1.55;1.45;;;18.70;70.00;;;;;;5040871;28;20021;-53
2023/10/25 02:04:23;;;;;;;2.72;1.40;;;18.70;69.90;;;;;;5050757;28;20080;-55
2023/10/25 02:06:51;;;;;;;1.33;1.23;;;18.70;69.90;;;;;;5041549;28;20029;-56
2023/10/25 02:09:18;;;;;;;2.47;1.38;;;18.70;70.00;;;;;;5046552;28;20033;-56
2023/10/25 02:11:43;;;;;;;1.38;1.20;;;18.70;69.90;;;;;;5048002;28;20024;-56
2023/10/25 02:14:09;;;;;;;1.40;1.30;;;18.70;69.90;;;;;;5044654;28;20033;-56
2023/10/25 02:16:35;;;;;;;1.40;1.25;;;18.70;69.90;;;;;;5049043;28;20048;-56
2023/10/25 02:19:00;;;;;;;1.45;1.30;;;18.70;69.80;;;;;;5049724;28;20051;-55
2023/10/25 02:21:26;;;;;;;1.50;1.40;;;18.60;69.90;;;;;;5038499;28;20041;-57
2023/10/25 02:23:53;;;;;;;1.40;1.30;;;18.70;69.90;;;;;;5031462;28;20098;-55
2023/10/25 02:26:19;;;;;;;2.03;1.48;;;18.70;70.00;;;;;;5045548;28;20029;-56
2023/10/25 02:28:44;;;;;;;1.48;1.33;;;18.70;70.00;;;;;;5050085;28;20025;-56
2023/10/25 02:31:10;;;;;;;2.47;1.50;;;18.70;70.00;;;;;;5031945;28;20036;-57
2023/10/25 02:33:36;;;;;;;0.90;0.90;;;18.60;69.90;;;;;;5048077;28;20056;-56
2023/10/25 02:36:01;;;;;;;1.63;1.30;;;18.70;69.90;;;;;;5051453;28;20493;-56
2023/10/25 02:38:27;;;;;;;1.20;1.10;;;18.70;69.90;;;;;;5052335;28;20398;-55
2023/10/25 02:40:52;;;;;;;1.20;1.10;;;18.70;70.00;;;;;;5032058;28;20128;-56
2023/10/25 02:43:18;;;;;;;1.25;1.15;;;18.70;69.90;;;;;;5056250;28;20375;-56
2023/10/25 02:45:44;;;;;;;1.40;1.30;;;18.70;70.00;;;;;;5049964;28;20471;-56
2023/10/25 02:48:13;;;;;;;1.10;0.98;;;18.70;69.90;;;;;;5027170;28;20036;-53
2023/10/25 02:50:39;;;;;;;1.52;1.42;;;18.70;69.90;;;;;;5031570;28;20459;-53
2023/10/25 02:53:04;;;;;;;1.20;1.10;;;18.70;70.00;;;;;;5037723;28;20075;-56
2023/10/25 02:55:31;;;;;;;1.50;1.38;;;18.70;70.00;;;;;;5050303;28;20021;-54
2023/10/25 02:57:57;;;;;;;1.27;1.10;;;18.70;69.90;;;;;;5014546;28;20026;-57
2023/10/25 03:00:23;;;;;;;1.05;0.95;;;18.70;70.00;;;;;;5036819;28;20044;-51
2023/10/25 03:02:49;;;;;;;0.90;0.90;;;18.70;69.90;;;;;;5019397;28;20506;-57
2023/10/25 03:05:14;;;;;;;1.10;1.00;;;18.70;70.00;;;;;;5034878;28;20041;-57
2023/10/25 03:07:40;;;;;;;1.20;1.10;;;18.70;70.00;;;;;;5028566;28;20109;-56
2023/10/25 03:10:06;;;;;;;1.23;1.13;;;18.70;69.90;;;;;;5035825;28;20040;-53
2023/10/25 03:12:32;;;;;;;1.50;1.20;;;18.70;69.90;;;;;;5037795;28;20036;-51
2023/10/25 03:14:58;;;;;;;1.17;1.08;;;18.70;69.90;;;;;;5018133;28;20402;-56
2023/10/25 03:17:24;;;;;;;1.20;1.05;;;18.70;70.00;;;;;;5033055;28;20030;-57
2023/10/25 03:19:49;;;;;;;1.10;1.00;;;18.70;69.90;;;;;;5038943;28;20590;-51
2023/10/25 03:22:15;;;;;;;0.93;0.82;;;18.70;69.90;;;;;;5033372;28;20036;-56
2023/10/25 03:24:40;;;;;;;1.15;1.05;;;18.70;70.00;;;;;;5026688;28;20034;-57
2023/10/25 03:27:07;;;;;;;1.35;0.90;;;18.70;70.00;;;;;;5035355;28;20028;-53
2023/10/25 03:29:36;;;;;;;1.02;0.90;;;18.70;69.90;;;;;;5036158;28;20304;-55
2023/10/25 03:32:02;;;;;;;1.05;0.95;;;18.70;69.90;;;;;;5017138;28;20025;-55
2023/10/25 03:34:28;;;;;;;1.02;0.93;;;18.70;69.90;;;;;;5012914;28;20103;-54
2023/10/25 03:36:53;;;;;;;1.35;1.15;;;18.70;69.90;;;;;;5015602;28;20053;-55
2023/10/25 03:39:19;;;;;;;0.98;0.88;;;18.70;69.90;;;;;;5041537;28;20025;-55
2023/10/25 03:41:44;;;;;;;1.02;0.93;;;18.60;69.90;;;;;;5022884;28;20108;-57
2023/10/25 03:44:10;;;;;;;1.00;1.00;;;18.70;69.90;;;;;;5033249;28;20033;-50
2023/10/25 03:46:38;;;;;;;1.10;1.00;;;18.70;70.00;;;;;;5027049;28;20051;-55
2023/10/25 03:49:03;;;;;;;1.00;0.90;;;18.70;69.90;;;;;;5034517;28;20057;-56
2023/10/25 03:51:29;;;;;;;1.05;0.90;;;18.70;69.90;;;;;;5018183;28;20071;-53
2023/10/25 03:53:55;;;;;;;1.85;1.00;;;18.70;69.90;;;;;;5035729;28;20037;-53
2023/10/25 03:56:21;;;;;;;0.95;0.60;;;18.70;69.90;;;;;;5039608;28;20039;-53
2023/10/25 03:58:46;;;;;;;1.20;0.98;;;18.70;69.90;;;;;;5028535;28;20036;-54
2023/10/25 04:01:13;;;;;;;1.23;1.13;;;18.60;69.80;;;;;;5022373;28;20063;-53
2023/10/25 04:03:39;;;;;;;0.98;0.80;;;18.70;69.90;;;;;;5037340;28;20034;-54
2023/10/25 04:06:06;;;;;;;0.60;0.60;;;18.70;69.90;;;;;;5039212;28;20706;-53
2023/10/25 04:08:31;;;;;;;0.77;0.70;;;18.70;69.90;;;;;;5037298;28;20029;-54
2023/10/25 04:10:57;;;;;;;1.08;0.98;;;18.70;69.90;;;;;;5013168;28;20032;-53
2023/10/25 04:13:24;;;;;;;0.90;0.90;;;18.70;69.90;;;;;;5041609;28;20036;-53
2023/10/25 04:16:04;;;;;;;1.42;1.00;;;18.70;69.90;;;;;;5041624;28;20112;-57
2023/10/25 04:18:31;;;;;;;3.03;0.95;;;18.70;69.90;;;;;;5021513;28;20036;-57
2023/10/25 04:20:58;;;;;;;1.90;1.10;;;18.70;69.90;;;;;;5034808;28;20521;-55
2023/10/25 04:23:26;;;;;;;0.73;0.73;;;18.70;69.90;;;;;;5041736;28;20036;-53
2023/10/25 04:25:52;;;;;;;2.35;0.70;;;18.70;69.90;;;;;;5034484;28;20510;-57
2023/10/25 04:28:18;;;;;;;1.70;0.90;;;18.70;69.80;;;;;;5029368;28;20036;-56
2023/10/25 04:30:45;;;;;;;0.65;0.65;;;18.60;69.80;;;;;;5023701;28;20037;-53
2023/10/25 04:33:11;;;;;;;0.70;0.70;;;18.60;69.80;;;;;;5041396;28;20033;-53
2023/10/25 04:35:37;;;;;;;0.70;0.65;;;18.70;69.90;;;;;;5018809;28;20074;-52
2023/10/25 04:38:03;;;;;;;1.25;0.73;;;18.60;69.80;;;;;;5036431;28;20526;-55
2023/10/25 04:40:30;;;;;;;0.70;0.70;;;18.70;69.80;;;;;;5041041;28;20025;-51
2023/10/25 04:42:56;;;;;;;1.65;0.90;;;18.70;69.90;;;;;;5035100;28;20029;-53
2023/10/25 04:45:22;;;;;;;0.80;0.80;;;18.60;70.40;;;;;;5034422;28;20037;-50
2023/10/25 04:47:51;;;;;;;0.73;0.63;;;18.60;69.80;;;;;;5020714;28;20033;-51
2023/10/25 04:50:19;;;;;;;0.70;0.60;;;18.60;69.80;;;;;;5023508;28;20037;-55
2023/10/25 04:52:45;;;;;;;1.05;0.77;;;18.60;69.80;;;;;;5019287;28;20528;-55
2023/10/25 04:55:11;;;;;;;1.50;0.80;;;18.70;69.90;;;;;;5022929;28;20039;-53
2023/10/25 04:57:37;;;;;;;1.67;0.70;;;18.60;69.80;;;;;;5040822;28;20060;-50
2023/10/25 05:00:03;;;;;;;2.13;0.70;;;18.60;69.80;;;;;;5040117;28;20098;-50
2023/10/25 05:02:29;;;;;;;0.85;0.63;;;18.60;69.80;;;;;;5021917;28;20036;-54
2023/10/25 05:04:56;;;;;;;0.63;0.63;;;18.60;69.80;;;;;;5022710;28;20036;-56
2023/10/25 05:07:21;;;;;;;0.65;0.65;;;18.60;70.40;;;;;;5042435;28;20513;-54
2023/10/25 05:09:47;;;;;;;0.77;0.55;;;18.60;69.80;;;;;;5040201;28;20029;-55
2023/10/25 05:12:15;;;;;;;1.08;0.50;;;18.60;69.80;;;;;;5022587;28;20878;-55
2023/10/25 05:14:41;;;;;;;0.95;0.68;;;18.60;69.80;;;;;;5023102;28;20056;-55
2023/10/25 05:17:09;;;;;;;1.63;0.80;;;18.60;69.80;;;;;;5024786;28;20119;-54
2023/10/25 05:19:35;;;;;;;1.10;0.70;;;18.60;69.80;;;;;;5024227;28;20032;-55
2023/10/25 05:22:06;;;;;;;2.70;1.05;;;18.60;69.80;;;;;;5024219;28;20025;-54
2023/10/25 05:24:32;;;;;;;1.45;0.60;;;18.60;69.80;;;;;;5042052;28;20226;-52
2023/10/25 05:26:58;;;;;;;1.63;1.15;;;18.60;69.80;;;;;;5042242;28;20129;-54
2023/10/25 05:29:24;;;;;;;1.50;1.00;;;18.60;69.80;;;;;;5041737;28;20036;-55
2023/10/25 05:31:50;;;;;;;1.88;1.17;;;18.60;69.80;;;;;;5040107;28;20036;-51
2023/10/25 05:34:16;;;;;;;1.38;0.90;;;18.60;69.80;;;;;;5041177;28;20037;-56
2023/10/25 05:36:42;;;;;;;2.10;1.20;;;18.60;69.80;;;;;;5025523;28;20108;-52
2023/10/25 05:39:08;;;;;;;3.83;1.10;;;18.60;69.80;;;;;;5043764;28;20120;-55
2023/10/25 05:41:38;;;;;;;2.38;1.30;;;18.60;70.00;;;;;;5022539;28;20542;-53
2023/10/25 05:44:13;;;;;;;2.45;1.63;;;18.60;70.00;;;;;;5041072;28;20044;-55
2023/10/25 05:46:38;;;;;;;3.95;1.25;;;18.60;70.10;;;;;;5039224;28;20100;-53
2023/10/25 05:49:04;;;;;;;1.58;1.40;;;18.60;70.00;;;;;;5045413;28;20040;-54
2023/10/25 05:51:30;;;;;;;4.35;1.40;;;18.60;70.10;;;;;;5045469;28;20033;-55
2023/10/25 05:53:56;;;;;;;3.15;1.60;;;18.60;70.10;;;;;;5041927;28;20106;-57
2023/10/25 05:56:26;;;;;;;1.90;1.50;;;18.60;70.20;;;;;;5046852;28;20044;-55
2023/10/25 05:58:55;;;;;;;3.30;1.90;;;18.60;70.10;;;;;;5026878;28;20037;-57
2023/10/25 06:01:47;;;;;;;3.15;2.45;;;18.60;70.30;;;;;;5047579;28;20036;-54
2023/10/25 06:04:13;;;;;;;4.00;2.00;;;18.60;70.10;;;;;;5046570;28;20782;-51
2023/10/25 06:06:42;;;;;;;2.80;1.40;;;18.60;70.20;;;;;;5046093;28;20029;-55
2023/10/25 06:09:08;;;;;;;4.65;1.70;;;18.60;70.20;;;;;;5045445;28;20422;-54
2023/10/25 06:11:34;;;;;;;4.13;1.70;;;18.60;70.20;;;;;;5045202;28;20095;-55
2023/10/25 06:14:00;;;;;;;3.67;1.98;;;18.60;70.20;;;;;;5044197;28;20033;-53
2023/10/25 06:16:26;;;;;;;3.70;1.70;;;18.70;70.30;;;;;;5048416;28;20036;-54
2023/10/25 06:18:51;;;;;;;3.05;1.70;;;18.60;70.30;;;;;;5047237;28;20090;-56
2023/10/25 06:21:17;;;;;;;4.22;1.85;;;18.60;70.20;;;;;;5044838;28;20058;-55
2023/10/25 06:23:42;;;;;;;4.20;1.98;;;18.60;70.30;;;;;;5047927;28;20025;-57
2023/10/25 06:26:08;;;;;;;4.68;2.05;;;18.60;70.20;;;;;;5044673;28;20037;-56
2023/10/25 06:28:34;;;;;;;4.13;1.77;;;18.60;70.20;;;;;;5044131;28;20074;-57
2023/10/25 06:30:59;;;;;;;2.50;1.65;;;18.70;70.30;;;;;;5042725;28;20033;-55
2023/10/25 06:33:25;;;;;;;4.72;2.42;;;18.60;70.20;;;;;;5043494;28;20056;-56
2023/10/25 06:35:51;;;;;;;4.00;2.03;;;18.60;70.20;;;;;;5043713;28;20037;-56
2023/10/25 06:38:17;;;;;;;4.90;2.03;;;18.60;70.20;;;;;;5047077;28;20820;-56
2023/10/25 06:40:44;;;;;;;3.85;1.80;;;18.70;70.30;;;;;;5041196;28;20555;-55
2023/10/25 06:43:10;;;;;;;9.75;2.10;;;18.60;70.20;;;;;;5045270;28;20174;-57
2023/10/25 06:45:36;;;;;;;4.28;1.92;;;18.60;70.20;;;;;;5048283;28;20559;-57
2023/10/25 06:48:02;;;;;;;4.30;1.50;;;18.70;70.30;;;;;;5045655;28;20113;-57
2023/10/25 06:50:28;;;;;;;4.45;1.55;;;18.70;70.20;;;;;;5051053;28;20102;-61
2023/10/25 06:52:54;;;;;;;7.97;3.05;;;18.70;70.20;;;;;;5048643;28;20064;-56
2023/10/25 06:55:20;;;;;;;4.82;2.00;;;18.60;70.10;;;;;;5048596;28;20040;-57
2023/10/25 06:57:46;;;;;;;3.35;1.50;;;18.70;70.20;;;;;;5043817;28;20029;-54
2023/10/25 07:00:12;;;;;;;3.08;1.40;;;18.60;70.10;;;;;;5048210;28;20494;-56
2023/10/25 07:02:43;;;;;;;4.53;1.70;;;18.60;70.00;;;;;;5043513;28;20085;-56
2023/10/25 07:05:13;;;;;;;2.95;2.20;;;18.70;70.10;;;;;;5042739;28;20025;-56
2023/10/25 07:07:41;;;;;;;5.55;1.70;;;18.60;70.00;;;;;;5044115;28;20025;-53
2023/10/25 07:10:08;;;;;;;2.35;1.30;;;18.70;70.10;;;;;;5049500;28;20109;-56
2023/10/25 07:12:34;;;;;;;3.00;1.30;;;18.60;70.10;;;;;;5026455;28;20052;-56
2023/10/25 07:14:59;;;;;;;5.55;2.17;;;18.60;70.00;;;;;;5045589;28;20059;-55
2023/10/25 07:17:27;;;;;;;3.25;1.60;;;18.70;70.00;;;;;;5049020;28;20033;-56
2023/10/25 07:19:53;;;;;;;2.53;1.77;;;18.70;70.10;;;;;;5045412;28;20079;-54
2023/10/25 07:22:19;;;;;;;3.97;1.40;;;18.70;70.00;;;;;;5046007;28;20021;-56
2023/10/25 07:24:44;;;;;;;3.10;1.92;;;18.70;70.00;;;;;;5046393;28;20045;-56
2023/10/25 07:27:10;;;;;;;2.33;1.42;;;18.70;70.00;;;;;;5045956;28;20143;-54
2023/10/25 07:29:38;;;;;;;2.88;1.35;;;18.70;69.90;;;;;;5048048;28;20036;-56
2023/10/25 07:32:04;;;;;;;4.00;1.63;;;18.70;69.90;;;;;;5048715;28;20025;-57
2023/10/25 07:34:30;;;;;;;4.72;1.42;;;18.70;69.90;;;;;;5033325;28;20086;-58
2023/10/25 07:36:56;;;;;;;7.63;1.80;;;18.70;69.90;;;;;;5049797;28;20116;-57
2023/10/25 07:39:21;;;;;;;3.10;1.30;;;18.70;69.80;;;;;;5046143;28;20032;-56
2023/10/25 07:41:47;;;;;;;1.85;1.45;;;18.70;69.80;;;;;;5047856;28;20100;-53
2023/10/25 07:44:12;;;;;;;2.72;1.52;;;18.70;69.80;;;;;;5048689;28;20029;-54
2023/10/25 07:46:38;;;;;;;3.67;1.48;;;18.70;69.80;;;;;;5047199;28;20630;-55
2023/10/25 07:49:04;;;;;;;3.95;1.58;;;18.70;69.80;;;;;;5044377;28;20036;-55
2023/10/25 07:51:29;;;;;;;3.83;1.42;;;18.70;69.80;;;;;;5024125;28;20033;-60
2023/10/25 07:53:55;;;;;;;2.97;1.25;;;18.60;69.70;;;;;;5042613;28;20071;-53
2023/10/25 07:56:20;;;;;;;4.20;1.38;;;18.70;69.70;;;;;;5030267;28;20052;-56
2023/10/25 07:58:46;;;;;;;1.73;1.10;;;18.70;69.70;;;;;;5026558;28;20040;-53
2023/10/25 08:01:12;;;;;;;1.88;1.20;;;18.70;69.70;;;;;;5043802;28;20104;-56
2023/10/25 08:03:38;;;;;;;1.48;1.08;;;18.70;69.70;;;;;;5042380;28;20044;-57
2023/10/25 08:06:04;;;;;;;2.80;1.17;;;18.70;69.70;;;;;;5047399;28;20029;-56
2023/10/25 08:08:29;;;;;;;1.52;0.82;;;18.70;69.70;;;;;;5042534;28;20033;-61
2023/10/25 08:11:02;;;;;;;2.00;1.50;;;18.70;69.70;;;;;;5041448;28;20379;-55
2023/10/25 08:13:29;;;;;;;1.50;1.00;;;18.70;69.70;;;;;;5043636;28;20044;-53
2023/10/25 08:15:59;;;;;;;2.25;1.27;;;18.70;69.70;;;;;;5042106;28;20090;-56
2023/10/25 08:18:27;;;;;;;5.10;1.33;;;18.70;69.70;;;;;;5052101;28;20040;-52
2023/10/25 08:20:53;;;;;;;1.20;0.80;;;18.70;69.70;;;;;;5042460;28;20032;-53
2023/10/25 08:23:19;;;;;;;1.33;1.05;;;18.70;69.70;;;;;;5044344;28;20100;-55
2023/10/25 08:25:45;;;;;;;1.27;0.90;;;18.70;69.60;;;;;;5042628;28;20116;-52
2023/10/25 08:28:10;;;;;;;2.15;1.05;;;18.70;69.60;;;;;;5045682;28;20041;-54
2023/10/25 08:30:36;;;;;;;2.60;0.95;;;18.70;69.60;;;;;;5048411;28;20035;-53
2023/10/25 08:33:01;;;;;;;3.95;1.15;;;18.70;69.60;;;;;;5041553;28;20044;-54
2023/10/25 08:35:27;;;;;;;1.13;0.82;;;18.70;69.60;;;;;;5045916;28;20040;-54
2023/10/25 08:37:53;;;;;;;1.65;1.23;;;18.70;69.60;;;;;;5045491;28;20029;-54
2023/10/25 08:40:18;;;;;;;0.88;0.68;;;18.70;69.60;;;;;;5047262;28;20033;-52
2023/10/25 08:42:44;;;;;;;1.98;1.50;;;18.70;69.60;;;;;;5042082;28;20580;-57
2023/10/25 08:45:10;;;;;;;2.75;0.90;;;18.70;69.60;;;;;;5043075;28;20128;-54
2023/10/25 08:47:39;;;;;;;1.23;0.88;;;18.70;70.20;;;;;;5041484;28;20537;-57
2023/10/25 08:50:05;;;;;;;1.85;0.95;;;18.70;69.60;;;;;;5044728;28;20029;-57
2023/10/25 08:52:31;;;;;;;2.83;0.70;;;18.60;69.60;;;;;;5041331;28;20717;-56
2023/10/25 08:54:56;;;;;;;1.77;0.93;;;18.70;69.60;;;;;;5041194;28;20112;-57
2023/10/25 08:57:22;;;;;;;1.40;0.80;;;18.70;69.50;;;;;;5047673;28;20104;-54
2023/10/25 08:59:51;;;;;;;1.70;0.90;;;18.70;69.50;;;;;;5045240;28;20048;-57
2023/10/25 09:02:16;;;;;;;0.95;0.68;;;18.70;69.50;;;;;;5045039;28;20029;-55
2023/10/25 09:05:06;;;;;;;0.95;0.93;;;18.60;69.50;;;;;;5058136;23;20493;-55
2023/10/25 09:07:35;;;;;;;1.77;0.98;;;18.70;69.50;;;;;;5034487;28;20048;-56
2023/10/25 09:10:03;;;;;;;0.90;0.80;;;18.70;69.50;;;;;;5050596;28;20033;-56
2023/10/25 09:12:29;;;;;;;1.50;0.82;;;18.70;69.50;;;;;;5047885;28;20501;-55
2023/10/25 09:14:54;;;;;;;1.30;0.77;;;18.70;69.50;;;;;;5046972;28;20056;-57
2023/10/25 09:17:20;;;;;;;1.33;0.80;;;18.70;69.50;;;;;;5045386;28;20033;-57
2023/10/25 09:19:48;;;;;;;1.67;0.90;;;18.70;69.50;;;;;;5042434;28;20040;-56
2023/10/25 09:22:28;;;;;;;0.70;0.60;;;18.70;69.50;;;;;;5041236;28;20051;-57
2023/10/25 09:24:55;;;;;;;1.00;0.60;;;18.70;69.50;;;;;;5046150;28;20029;-57
2023/10/25 09:27:22;;;;;;;1.42;0.65;;;18.70;69.50;;;;;;5049687;28;20036;-56
2023/10/25 09:29:48;;;;;;;0.50;0.50;;;18.70;69.50;;;;;;5047548;28;20113;-56
2023/10/25 09:32:13;;;;;;;1.20;0.80;;;18.60;69.40;;;;;;5025904;28;20068;-56
2023/10/25 09:34:39;;;;;;;1.33;0.60;;;18.70;69.50;;;;;;5044664;28;20052;-56
2023/10/25 09:37:08;;;;;;;0.90;0.60;;;18.70;69.50;;;;;;5047177;28;20037;-56
2023/10/25 09:39:37;;;;;;;1.63;0.73;;;18.70;69.50;;;;;;5034070;28;20036;-57
2023/10/25 09:42:13;;;;;;;1.83;0.80;;;18.70;69.50;;;;;;5041593;28;20055;-55
2023/10/25 09:44:50;;;;;;;0.50;0.47;;;18.70;69.50;;;;;;5050791;28;20033;-56
2023/10/25 09:47:18;;;;;;;0.95;0.85;;;18.70;69.50;;;;;;5025234;28;20115;-56
2023/10/25 09:49:48;;;;;;;0.85;0.57;;;18.60;69.40;;;;;;5043410;28;20033;-56
2023/10/25 09:52:19;;;;;;;0.88;0.70;;;18.70;69.50;;;;;;5042247;28;20107;-54
2023/10/25 09:54:52;;;;;;;0.65;0.65;;;18.70;69.50;;;;;;5050442;28;20032;-56
2023/10/25 09:57:19;;;;;;;0.88;0.68;;;18.60;69.40;;;;;;5040703;28;20025;-55
2023/10/25 09:59:45;;;;;;;0.60;0.60;;;18.60;69.40;;;;;;5048776;28;20044;-57
2023/10/25 10:02:46;;;;;;;0.70;0.57;;;18.70;69.50;;;;;;5045741;28;20286;-57
2023/10/25 10:05:21;;;;;;;1.35;0.57;;;18.70;70.10;;;;;;5046640;28;20033;-56
2023/10/25 10:08:05;;;;;;;0.70;0.63;;;18.60;69.40;;;;;;5042872;28;20029;-55
2023/10/25 10:10:48;;;;;;;0.60;0.52;;;18.60;69.40;;;;;;5019887;28;20119;-53
2023/10/25 10:13:18;;;;;;;0.75;0.60;;;18.70;69.40;;;;;;5041583;28;20635;-56
2023/10/25 10:16:01;;;;;;;0.68;0.60;;;18.70;69.40;;;;;;5046121;28;20105;-54
2023/10/25 10:18:30;;;;;;;0.70;0.60;;;18.70;69.40;;;;;;5046460;28;20564;-55
2023/10/25 10:21:07;;;;;;;1.88;0.80;;;18.70;69.40;;;;;;5048019;28;20032;-54
2023/10/25 10:23:53;;;;;;;0.70;0.60;;;18.70;69.40;;;;;;5019782;28;20512;-56
2023/10/25 10:26:43;;;;;;;0.60;0.57;;;18.60;69.30;;;;;;5055332;28;20078;-57
2023/10/25 10:29:30;;;;;;;0.57;0.57;;;18.70;69.30;;;;;;5051625;28;20734;-55
2023/10/25 10:31:57;;;;;;;0.55;0.43;;;18.70;69.30;;;;;;5047290;28;20128;-56
2023/10/25 10:34:52;;;;;;;0.70;0.50;;;18.70;69.30;;;;;;5052623;28;20041;-55
2023/10/25 10:37:25;;;;;;;0.73;0.60;;;18.70;69.30;;;;;;5028385;28;20029;-56
2023/10/25 10:40:03;;;;;;;0.43;0.40;;;18.70;69.30;;;;;;5048709;28;20123;-54
2023/10/25 10:42:28;;;;;;;1.00;0.50;;;18.70;69.30;;;;;;5033460;28;20587;-56
2023/10/25 10:44:58;;;;;;;0.60;0.60;;;18.60;69.30;;;;;;5052523;28;20131;-55
2023/10/25 10:47:38;;;;;;;1.30;0.73;;;18.70;69.30;;;;;;5045422;28;20044;-57
2023/10/25 10:50:18;;;;;;;0.55;0.52;;;18.70;69.30;;;;;;5049997;28;20025;-56
2023/10/25 10:52:45;;;;;;;0.80;0.65;;;18.60;69.30;;;;;;5045976;28;20033;-57
2023/10/25 10:55:17;;;;;;;0.77;0.60;;;18.70;69.40;;;;;;5050180;28;20025;-56
2023/10/25 10:57:43;;;;;;;0.43;0.40;;;18.60;69.30;;;;;;5045400;28;20063;-57
2023/10/25 11:00:10;;;;;;;0.70;0.40;;;18.70;69.30;;;;;;5055183;28;20144;-56
2023/10/25 11:02:37;;;;;;;0.95;0.60;;;18.60;69.30;;;;;;5041145;28;20075;-55
2023/10/25 11:05:06;;;;;;;0.50;0.50;;;18.60;69.30;;;;;;5041830;28;20045;-57
2023/10/25 11:07:33;;;;;;;0.52;0.50;;;18.70;69.40;;;;;;4999372;28;20595;-56
2023/10/25 11:09:59;;;;;;;1.73;0.50;;;18.60;69.30;;;;;;5055051;28;20078;-54
2023/10/25 11:12:24;;;;;;;0.47;0.40;;;18.70;69.40;;;;;;5052292;28;20036;-55
2023/10/25 11:14:50;;;;;;;0.85;0.55;;;18.60;69.40;;;;;;5047354;28;20536;-54
2023/10/25 11:17:16;;;;;;;0.85;0.68;;;18.60;69.40;;;;;;5049055;28;20111;-56
2023/10/25 11:19:47;;;;;;;1.08;0.50;;;18.60;69.40;;;;;;5057422;28;20718;-57
2023/10/25 11:22:13;;;;;;;0.82;0.60;;;18.60;69.30;;;;;;5047510;28;20033;-56
2023/10/25 11:24:38;;;;;;;0.75;0.55;;;18.60;69.30;;;;;;5049764;28;20117;-56
2023/10/25 11:27:05;;;;;;;0.55;0.40;;;18.70;69.40;;;;;;5049608;28;20041;-53
2023/10/25 11:29:39;;;;;;;1.25;0.68;;;18.60;69.30;;;;;;5042350;28;20188;-57
2023/10/25 11:32:12;;;;;;;0.68;0.43;;;18.70;69.40;;;;;;5029782;28;20063;-57
2023/10/25 11:34:41;;;;;;;0.82;0.40;;;18.60;69.30;;;;;;5053871;28;20423;-54
2023/10/25 11:37:07;;;;;;;0.47;0.40;;;18.70;69.40;;;;;;5054436;28;20112;-58
2023/10/25 11:39:53;;;;;;;0.60;0.50;;;18.60;69.30;;;;;;5028863;28;20459;-58
2023/10/25 11:42:19;;;;;;;0.70;0.50;;;18.70;69.40;;;;;;5041491;28;20036;-52
2023/10/25 11:44:44;;;;;;;0.68;0.47;;;18.70;69.40;;;;;;5047000;28;20476;-54
2023/10/25 11:47:17;;;;;;;0.63;0.47;;;18.70;69.30;;;;;;5049481;28;20486;-58
2023/10/25 11:49:43;;;;;;;1.58;0.82;;;18.60;69.30;;;;;;5043605;28;20503;-58
2023/10/25 11:52:08;;;;;;;1.27;0.60;;;18.60;69.30;;;;;;5047358;28;20029;-57
2023/10/25 11:54:34;;;;;;;0.70;0.50;;;18.70;69.40;;;;;;5053193;28;20032;-57
2023/10/25 11:56:59;;;;;;;0.60;0.50;;;18.70;69.30;;;;;;5042875;28;20082;-57
2023/10/25 11:59:25;;;;;;;0.77;0.63;;;18.70;69.30;;;;;;5044615;28;20478;-54
2023/10/25 12:01:50;;;;;;;0.90;0.50;;;18.70;69.40;;;;;;5047342;28;20121;-56
2023/10/25 12:04:16;;;;;;;0.73;0.55;;;18.60;69.30;;;;;;5016657;28;1046531;-54
2023/10/25 12:06:41;;;;;;;0.57;0.52;;;18.60;69.30;;;;;;5047032;28;20033;-55
2023/10/25 12:09:07;;;;;;;1.60;0.40;;;18.70;69.30;;;;;;5052694;28;20047;-60
2023/10/25 12:11:32;;;;;;;0.52;0.52;;;18.70;69.30;;;;;;5031801;28;20029;-56
2023/10/25 12:13:58;;;;;;;0.40;0.40;;;18.70;69.30;;;;;;5047386;28;20394;-57
2023/10/25 12:16:24;;;;;;;0.68;0.35;;;18.70;69.30;;;;;;5052594;28;20036;-55
2023/10/25 12:18:49;;;;;;;1.13;0.50;;;18.60;69.30;;;;;;5046506;28;20028;-58
2023/10/25 12:21:15;;;;;;;0.77;0.55;;;18.70;69.30;;;;;;5048779;28;20029;-56
2023/10/25 12:23:40;;;;;;;0.80;0.63;;;18.60;69.30;;;;;;5052931;28;20036;-54
2023/10/25 12:26:06;;;;;;;1.17;0.40;;;18.60;69.30;;;;;;5037931;28;20680;-53
2023/10/25 12:28:32;;;;;;;0.75;0.63;;;18.70;69.30;;;;;;5038936;28;20747;-55
2023/10/25 12:30:57;;;;;;;0.70;0.60;;;18.70;69.30;;;;;;5054944;28;20040;-58
2023/10/25 12:33:23;;;;;;;1.75;0.60;;;18.70;69.40;;;;;;5047827;28;20025;-55
2023/10/25 12:35:49;;;;;;;0.80;0.40;;;18.70;69.30;;;;;;5045719;28;20052;-57
2023/10/25 12:38:15;;;;;;;1.50;0.70;;;18.60;69.30;;;;;;5056108;28;20036;-57
2023/10/25 12:40:40;;;;;;;1.65;0.60;;;18.70;69.40;;;;;;5054003;28;20025;-59
2023/10/25 12:43:06;;;;;;;0.85;0.63;;;18.70;69.30;;;;;;5049224;28;20116;-55
2023/10/25 12:45:32;;;;;;;0.55;0.50;;;18.60;69.30;;;;;;5042351;28;20059;-55
2023/10/25 12:47:57;;;;;;;1.52;0.40;;;18.60;69.30;;;;;;5048848;28;20153;-56
2023/10/25 12:50:24;;;;;;;1.00;0.55;;;18.70;69.30;;;;;;5047684;28;20083;-57